createdAt,value
2022-08-28T00:00:27.468Z,994.69
2022-08-28T00:01:26.394Z,994.62
2022-08-28T00:02:26.428Z,994.66
2022-08-28T00:03:26.427Z,994.64
2022-08-28T00:04:26.478Z,994.66
2022-08-28T00:05:26.375Z,994.63
2022-08-28T00:06:26.400Z,994.63
2022-08-28T00:07:26.345Z,994.62
2022-08-28T00:08:26.301Z,994.65
2022-08-28T00:09:26.347Z,994.65
2022-08-28T00:10:26.314Z,994.72
2022-08-28T00:11:26.374Z,994.63
2022-08-28T00:12:26.270Z,994.68
2022-08-28T00:13:26.321Z,994.71
2022-08-28T00:14:26.292Z,994.71
2022-08-28T00:15:26.287Z,994.70
2022-08-28T00:16:27.311Z,994.75
2022-08-28T00:17:26.186Z,994.65
2022-08-28T00:18:26.157Z,994.72
2022-08-28T00:19:26.156Z,994.72
2022-08-28T00:20:26.180Z,994.69
2022-08-28T00:21:26.705Z,994.69
2022-08-28T00:22:26.130Z,994.74
2022-08-28T00:23:26.264Z,994.69
2022-08-28T00:24:27.120Z,994.76
2022-08-28T00:25:26.129Z,994.74
2022-08-28T00:26:26.186Z,994.72
2022-08-28T00:27:26.067Z,994.76
2022-08-28T00:28:26.070Z,994.78
2022-08-28T00:29:26.121Z,994.76
2022-08-28T00:30:26.065Z,994.76
2022-08-28T00:31:26.135Z,994.75
2022-08-28T00:32:26.006Z,994.76
2022-08-28T00:33:26.060Z,994.76
2022-08-28T00:34:33.143Z,994.75
2022-08-28T00:35:27.019Z,994.75
2022-08-28T00:36:26.033Z,994.79
2022-08-28T00:37:25.964Z,994.82
2022-08-28T00:38:26.041Z,994.79
2022-08-28T00:39:25.990Z,994.78
2022-08-28T00:40:28.663Z,994.78
2022-08-28T00:41:27.548Z,994.75
2022-08-28T00:42:26.033Z,994.83
2022-08-28T00:43:25.947Z,994.79
2022-08-28T00:44:25.893Z,994.80
2022-08-28T00:45:25.933Z,994.81
2022-08-28T00:46:25.905Z,994.82
2022-08-28T00:47:25.923Z,994.87
2022-08-28T00:48:25.905Z,994.88
2022-08-28T00:49:25.881Z,994.86
2022-08-28T00:50:25.879Z,994.89
2022-08-28T00:51:25.827Z,994.87
2022-08-28T00:52:25.853Z,994.85
2022-08-28T00:53:29.951Z,994.85
2022-08-28T00:54:35.232Z,994.82
2022-08-28T00:55:26.934Z,994.87
2022-08-28T00:56:25.885Z,994.85
2022-08-28T00:57:27.084Z,994.88
2022-08-28T00:58:25.811Z,994.86
2022-08-28T00:59:25.836Z,994.86
2022-08-28T01:00:25.775Z,994.92
2022-08-28T01:01:25.911Z,994.86
2022-08-28T01:02:25.725Z,994.89
2022-08-28T01:03:26.507Z,994.90
2022-08-28T01:04:26.836Z,994.94
2022-08-28T01:05:25.784Z,994.88
2022-08-28T01:06:25.697Z,994.93
2022-08-28T01:07:25.686Z,994.93
2022-08-28T01:08:25.647Z,994.93
2022-08-28T01:09:25.747Z,994.90
2022-08-28T01:10:25.641Z,994.89
2022-08-28T01:11:25.671Z,994.96
2022-08-28T01:12:25.655Z,994.93
2022-08-28T01:13:25.656Z,994.98
2022-08-28T01:14:25.599Z,994.96
2022-08-28T01:15:25.632Z,994.95
2022-08-28T01:16:32.351Z,994.94
2022-08-28T01:17:26.613Z,994.98
2022-08-28T01:18:25.581Z,994.94
2022-08-28T01:19:25.552Z,995.01
2022-08-28T01:20:25.565Z,994.98
2022-08-28T01:21:25.540Z,995.01
2022-08-28T01:22:25.524Z,994.98
2022-08-28T01:23:25.544Z,994.99
2022-08-28T01:24:25.719Z,995.03
2022-08-28T01:25:25.482Z,995.05
2022-08-28T01:26:25.526Z,995.00
2022-08-28T01:27:25.467Z,994.97
2022-08-28T01:28:25.478Z,995.02
2022-08-28T01:29:25.427Z,995.03
2022-08-28T01:30:25.515Z,995.05
2022-08-28T01:31:25.502Z,995.08
2022-08-28T01:32:25.431Z,995.07
2022-08-28T01:33:28.087Z,995.07
2022-08-28T01:34:25.527Z,995.14
2022-08-28T01:35:25.387Z,995.17
2022-08-28T01:36:25.375Z,995.14
2022-08-28T01:37:25.388Z,995.03
2022-08-28T01:38:26.912Z,995.14
2022-08-28T01:39:25.460Z,995.17
2022-08-28T01:40:25.568Z,995.14
2022-08-28T01:41:26.033Z,995.22
2022-08-28T01:42:25.317Z,995.15
2022-08-28T01:43:25.331Z,995.18
2022-08-28T01:44:25.316Z,995.11
2022-08-28T01:45:25.272Z,995.18
2022-08-28T01:46:25.423Z,995.19
2022-08-28T01:47:25.264Z,995.18
2022-08-28T01:48:25.290Z,995.22
2022-08-28T01:49:25.247Z,995.14
2022-08-28T01:50:25.281Z,995.23
2022-08-28T01:51:25.205Z,995.18
2022-08-28T01:52:26.446Z,995.17
2022-08-28T01:53:25.262Z,995.21
2022-08-28T01:54:26.222Z,995.20
2022-08-28T01:55:25.218Z,995.19
2022-08-28T01:56:26.199Z,995.19
2022-08-28T01:57:25.230Z,995.23
2022-08-28T01:58:26.288Z,995.24
2022-08-28T01:59:25.156Z,995.20
2022-08-28T02:00:26.287Z,995.16
2022-08-28T02:01:25.720Z,995.17
2022-08-28T02:02:25.201Z,995.20
2022-08-28T02:03:26.059Z,995.20
2022-08-28T02:04:31.673Z,995.20
2022-08-28T02:05:25.160Z,995.14
2022-08-28T02:06:26.243Z,995.14
2022-08-28T02:07:25.142Z,995.15
2022-08-28T02:08:25.221Z,995.17
2022-08-28T02:09:26.218Z,995.12
2022-08-28T02:10:25.153Z,995.20
2022-08-28T02:11:25.110Z,995.21
2022-08-28T02:12:25.121Z,995.18
2022-08-28T02:13:25.649Z,995.19
2022-08-28T02:14:25.092Z,995.17
2022-08-28T02:15:26.395Z,995.21
2022-08-28T02:16:25.077Z,995.26
2022-08-28T02:17:26.114Z,995.25
2022-08-28T02:18:25.015Z,995.25
2022-08-28T02:19:24.971Z,995.30
2022-08-28T02:20:24.989Z,995.30
2022-08-28T02:21:24.955Z,995.28
2022-08-28T02:22:24.932Z,995.29
2022-08-28T02:23:24.975Z,995.30
2022-08-28T02:24:24.909Z,995.23
2022-08-28T02:25:24.974Z,995.25
2022-08-28T02:26:24.897Z,995.23
2022-08-28T02:27:24.866Z,995.36
2022-08-28T02:28:24.847Z,995.34
2022-08-28T02:29:24.858Z,995.34
2022-08-28T02:30:25.231Z,995.29
2022-08-28T02:31:24.878Z,995.33
2022-08-28T02:32:24.835Z,995.33
2022-08-28T02:45:13.440Z,995.38
2022-08-28T02:46:13.366Z,995.42
2022-08-28T02:47:13.321Z,995.43
2022-08-28T02:48:16.806Z,995.46
2022-08-28T02:49:13.109Z,995.42
2022-08-28T02:50:13.377Z,995.42
2022-08-28T02:51:13.089Z,995.42
2022-08-28T02:52:13.051Z,995.35
2022-08-28T02:53:13.130Z,995.41
2022-08-28T02:54:13.058Z,995.43
2022-08-28T02:55:13.023Z,995.40
2022-08-28T02:56:13.180Z,995.39
2022-08-28T02:57:14.880Z,995.38
2022-08-28T02:58:14.254Z,995.46
2022-08-28T02:59:14.149Z,995.36
2022-08-28T03:00:14.244Z,995.41
2022-08-28T03:01:14.393Z,995.38
2022-08-28T03:02:14.211Z,995.38
2022-08-28T03:03:14.129Z,995.43
2022-08-28T03:04:14.220Z,995.47
2022-08-28T03:05:14.164Z,995.40
2022-08-28T03:06:14.128Z,995.46
2022-08-28T03:07:14.213Z,995.46
2022-08-28T03:08:14.188Z,995.46
2022-08-28T03:09:14.128Z,995.44
2022-08-28T03:10:14.133Z,995.45
2022-08-28T03:11:14.071Z,995.42
2022-08-28T03:12:14.094Z,995.44
2022-08-28T03:13:13.999Z,995.47
2022-08-28T03:14:15.104Z,995.47
2022-08-28T03:15:14.045Z,995.42
2022-08-28T03:16:14.147Z,995.47
2022-08-28T03:17:14.016Z,995.51
2022-08-28T03:18:14.125Z,995.45
2022-08-28T03:19:13.966Z,995.44
2022-08-28T03:20:13.970Z,995.51
2022-08-28T03:21:13.945Z,995.44
2022-08-28T03:22:14.060Z,995.51
2022-08-28T03:23:14.015Z,995.48
2022-08-28T03:24:15.625Z,995.51
2022-08-28T03:25:13.978Z,995.48
2022-08-28T03:26:13.953Z,995.48
2022-08-28T03:27:13.994Z,995.56
2022-08-28T03:28:14.029Z,995.48
2022-08-28T03:29:13.954Z,995.48
2022-08-28T03:30:13.849Z,995.49
2022-08-28T03:31:13.931Z,995.55
2022-08-28T03:32:13.921Z,995.53
2022-08-28T03:33:13.848Z,995.50
2022-08-28T03:34:13.968Z,995.52
2022-08-28T03:35:13.803Z,995.55
2022-08-28T03:36:13.881Z,995.50
2022-08-28T03:37:13.795Z,995.49
2022-08-28T03:38:13.955Z,995.50
2022-08-28T03:39:13.757Z,995.49
2022-08-28T03:40:13.926Z,995.51
2022-08-28T03:41:13.831Z,995.49
2022-08-28T03:42:13.802Z,995.51
2022-08-28T03:43:13.744Z,995.46
2022-08-28T03:44:13.813Z,995.50
2022-08-28T03:45:13.702Z,995.49
2022-08-28T03:46:14.347Z,995.58
2022-08-28T03:47:13.761Z,995.54
2022-08-28T03:48:13.843Z,995.54
2022-08-28T03:49:13.698Z,995.51
2022-08-28T03:50:13.711Z,995.53
2022-08-28T03:51:13.681Z,995.57
2022-08-28T03:52:13.704Z,995.54
2022-08-28T03:53:13.604Z,995.53
2022-08-28T03:54:13.649Z,995.56
2022-08-28T03:55:13.633Z,995.58
2022-08-28T03:56:13.613Z,995.52
2022-08-28T03:57:13.637Z,995.55
2022-08-28T03:58:18.981Z,995.55
2022-08-28T03:59:14.574Z,995.63
2022-08-28T04:00:13.566Z,995.61
2022-08-28T04:01:13.679Z,995.50
2022-08-28T04:02:13.516Z,995.59
2022-08-28T04:03:13.624Z,995.57
2022-08-28T04:04:13.547Z,995.52
2022-08-28T04:05:13.537Z,995.56
2022-08-28T04:06:13.535Z,995.62
2022-08-28T04:07:13.461Z,995.59
2022-08-28T04:08:13.621Z,995.59
2022-08-28T04:09:13.477Z,995.63
2022-08-28T04:10:13.475Z,995.64
2022-08-28T04:11:13.496Z,995.59
2022-08-28T04:12:13.493Z,995.62
2022-08-28T04:13:13.413Z,995.61
2022-08-28T04:14:13.408Z,995.66
2022-08-28T04:15:13.489Z,995.66
2022-08-28T04:16:13.419Z,995.63
2022-08-28T04:17:13.397Z,995.60
2022-08-28T04:18:13.616Z,995.56
2022-08-28T04:19:13.363Z,995.59
2022-08-28T04:20:13.481Z,995.60
2022-08-28T04:21:13.405Z,995.65
2022-08-28T04:22:13.360Z,995.62
2022-08-28T04:23:13.302Z,995.60
2022-08-28T04:24:13.376Z,995.61
2022-08-28T04:25:13.303Z,995.61
2022-08-28T04:26:13.367Z,995.64
2022-08-28T04:27:13.299Z,995.61
2022-08-28T04:28:13.412Z,995.61
2022-08-28T04:29:13.299Z,995.61
2022-08-28T04:30:13.250Z,995.63
2022-08-28T04:31:14.162Z,995.70
2022-08-28T04:32:13.286Z,995.68
2022-08-28T04:33:13.209Z,995.64
2022-08-28T04:34:13.268Z,995.70
2022-08-28T04:35:13.215Z,995.68
2022-08-28T04:36:13.281Z,995.67
2022-08-28T04:37:13.197Z,995.61
2022-08-28T04:38:13.419Z,995.65
2022-08-28T04:39:13.249Z,995.62
2022-08-28T04:40:13.294Z,995.66
2022-08-28T04:41:13.143Z,995.64
2022-08-28T04:42:13.119Z,995.70
2022-08-28T04:43:13.211Z,995.73
2022-08-28T04:44:13.101Z,995.70
2022-08-28T04:45:13.060Z,995.70
2022-08-28T04:46:13.217Z,995.73
2022-08-28T04:47:13.116Z,995.76
2022-08-28T04:48:13.457Z,995.79
2022-08-28T04:49:13.099Z,995.81
2022-08-28T04:50:13.080Z,995.83
2022-08-28T04:51:13.044Z,995.82
2022-08-28T04:52:13.069Z,995.74
2022-08-28T04:53:13.089Z,995.83
2022-08-28T04:54:13.001Z,995.90
2022-08-28T04:55:13.042Z,995.80
2022-08-28T04:56:12.989Z,995.86
2022-08-28T04:57:13.031Z,995.88
2022-08-28T04:58:13.030Z,995.90
2022-08-28T04:59:13.091Z,995.91
2022-08-28T05:00:12.993Z,995.92
2022-08-28T05:01:13.087Z,995.93
2022-08-28T05:02:12.950Z,995.91
2022-08-28T05:03:12.952Z,995.86
2022-08-28T05:04:12.899Z,995.90
2022-08-28T05:05:12.962Z,995.90
2022-08-28T05:06:12.901Z,995.90
2022-08-28T05:07:12.859Z,995.88
2022-08-28T05:08:13.078Z,995.90
2022-08-28T05:09:12.910Z,995.88
2022-08-28T05:10:12.896Z,995.90
2022-08-28T05:11:12.955Z,995.93
2022-08-28T05:12:12.837Z,995.94
2022-08-28T05:13:12.898Z,995.94
2022-08-28T05:14:16.102Z,995.96
2022-08-28T05:15:13.883Z,995.95
2022-08-28T05:16:12.906Z,995.99
2022-08-28T05:17:12.884Z,995.99
2022-08-28T05:18:12.975Z,996.02
2022-08-28T05:19:12.803Z,995.98
2022-08-28T05:20:12.790Z,996.02
2022-08-28T05:21:14.540Z,996.00
2022-08-28T05:22:13.758Z,996.05
2022-08-28T05:23:12.767Z,995.98
2022-08-28T05:24:12.802Z,996.01
2022-08-28T05:25:12.726Z,996.08
2022-08-28T05:26:12.727Z,996.10
2022-08-28T05:27:12.746Z,996.08
2022-08-28T05:28:12.872Z,996.11
2022-08-28T05:29:13.280Z,996.10
2022-08-28T05:30:12.657Z,996.14
2022-08-28T05:31:12.748Z,996.13
2022-08-28T05:32:12.721Z,996.13
2022-08-28T05:33:12.621Z,996.13
2022-08-28T05:34:12.642Z,996.15
2022-08-28T05:35:12.616Z,996.11
2022-08-28T05:36:13.295Z,996.13
2022-08-28T05:37:16.495Z,996.20
2022-08-28T05:38:13.825Z,996.15
2022-08-28T05:39:12.539Z,996.17
2022-08-28T05:40:12.605Z,996.17
2022-08-28T05:41:12.598Z,996.17
2022-08-28T05:42:12.516Z,996.09
2022-08-28T05:43:12.581Z,996.18
2022-08-28T05:44:12.492Z,996.14
2022-08-28T05:45:12.557Z,996.19
2022-08-28T05:46:12.580Z,996.13
2022-08-28T05:47:12.472Z,996.12
2022-08-28T05:48:12.670Z,996.12
2022-08-28T05:49:12.469Z,996.16
2022-08-28T05:50:12.451Z,996.16
2022-08-28T05:51:12.531Z,996.17
2022-08-28T05:52:12.450Z,996.16
2022-08-28T05:53:12.448Z,996.19
2022-08-28T05:54:12.410Z,996.16
2022-08-28T05:55:12.416Z,996.16
2022-08-28T05:56:12.540Z,996.19
2022-08-28T05:57:12.401Z,996.11
2022-08-28T05:58:12.530Z,996.09
2022-08-28T05:59:12.419Z,996.12
2022-08-28T06:00:12.339Z,996.11
2022-08-28T06:01:12.532Z,996.12
2022-08-28T06:02:12.390Z,996.15
2022-08-28T06:03:12.343Z,996.16
2022-08-28T06:04:12.457Z,996.16
2022-08-28T06:05:13.039Z,996.22
2022-08-28T06:06:12.387Z,996.22
2022-08-28T06:07:12.301Z,996.26
2022-08-28T06:08:12.604Z,996.20
2022-08-28T06:09:12.300Z,996.16
2022-08-28T06:10:12.397Z,996.18
2022-08-28T06:11:12.283Z,996.17
2022-08-28T06:12:12.322Z,996.14
2022-08-28T06:13:12.362Z,996.15
2022-08-28T06:14:12.287Z,996.09
2022-08-28T06:15:12.273Z,996.16
2022-08-28T06:16:12.294Z,996.13
2022-08-28T06:17:12.184Z,996.10
2022-08-28T06:18:12.245Z,996.14
2022-08-28T06:19:12.232Z,996.21
2022-08-28T06:20:12.212Z,996.20
2022-08-28T06:21:12.158Z,996.18
2022-08-28T06:22:12.185Z,996.19
2022-08-28T06:23:12.213Z,996.17
2022-08-28T06:24:13.137Z,996.18
2022-08-28T06:25:12.124Z,996.17
2022-08-28T06:26:12.160Z,996.18
2022-08-28T06:27:12.108Z,996.22
2022-08-28T06:28:12.350Z,996.23
2022-08-28T06:29:12.104Z,996.24
2022-08-28T06:30:12.185Z,996.20
2022-08-28T06:31:23.315Z,996.17
2022-08-28T06:32:14.581Z,996.20
2022-08-28T06:33:12.110Z,996.18
2022-08-28T06:36:54.289Z,996.28
2022-08-28T06:37:53.635Z,996.28
2022-08-28T06:38:53.942Z,996.36
2022-08-28T06:39:53.517Z,996.36
2022-08-28T06:40:53.452Z,996.32
2022-08-28T06:41:53.454Z,996.36
2022-08-28T06:42:53.406Z,996.33
2022-08-28T06:43:53.820Z,996.35
2022-08-28T06:44:53.613Z,996.33
2022-08-28T06:45:53.449Z,996.36
2022-08-28T06:46:53.414Z,996.37
2022-08-28T06:47:53.471Z,996.31
2022-08-28T06:48:55.557Z,996.38
2022-08-28T06:49:54.946Z,996.38
2022-08-28T06:50:54.779Z,996.31
2022-08-28T06:51:54.806Z,996.40
2022-08-28T06:52:55.204Z,996.38
2022-08-28T06:53:55.317Z,996.37
2022-08-28T06:54:55.908Z,996.34
2022-08-28T06:55:54.517Z,996.41
2022-08-28T06:56:54.677Z,996.38
2022-08-28T06:57:54.445Z,996.37
2022-08-28T06:58:56.306Z,996.40
2022-08-28T06:59:54.471Z,996.38
2022-08-28T07:01:02.243Z,996.33
2022-08-28T07:01:56.982Z,996.43
2022-08-28T07:02:55.898Z,996.41
2022-08-28T07:03:55.362Z,996.38
2022-08-28T07:04:55.211Z,996.42
2022-08-28T07:05:55.373Z,996.42
2022-08-28T07:06:55.287Z,996.44
2022-08-28T07:07:56.328Z,996.37
2022-08-28T07:08:56.200Z,996.43
2022-08-28T07:09:58.207Z,996.51
2022-08-28T07:10:56.161Z,996.48
2022-08-28T07:11:55.976Z,996.44
2022-08-28T07:12:54.319Z,996.46
2022-08-28T07:13:55.105Z,996.48
2022-08-28T07:14:54.345Z,996.54
2022-08-28T07:15:54.335Z,996.57
2022-08-28T07:16:54.310Z,996.49
2022-08-28T07:17:54.794Z,996.58
2022-08-28T07:18:54.928Z,996.49
2022-08-28T07:19:54.328Z,996.55
2022-08-28T07:20:54.405Z,996.56
2022-08-28T07:21:54.835Z,996.52
2022-08-28T07:22:59.367Z,996.51
2022-08-28T07:23:55.242Z,996.47
2022-08-28T07:24:54.247Z,996.50
2022-08-28T07:25:54.870Z,996.53
2022-08-28T07:26:54.441Z,996.48
2022-08-28T07:27:54.554Z,996.52
2022-08-28T07:29:26.678Z,996.53
2022-08-28T07:29:54.488Z,996.57
2022-08-28T07:30:54.296Z,996.45
2022-08-28T07:31:54.061Z,996.56
2022-08-28T07:32:53.962Z,996.54
2022-08-28T07:33:54.329Z,996.48
2022-08-28T07:34:54.005Z,996.55
2022-08-28T07:35:54.856Z,996.57
2022-08-28T07:36:54.033Z,996.49
2022-08-28T07:37:54.720Z,996.49
2022-08-28T07:38:54.079Z,996.56
2022-08-28T07:39:54.473Z,996.53
2022-08-28T07:40:54.073Z,996.60
2022-08-28T07:41:54.164Z,996.57
2022-08-28T07:42:53.929Z,996.58
2022-08-28T07:43:54.011Z,996.61
2022-08-28T07:44:54.886Z,996.54
2022-08-28T07:45:53.910Z,996.56
2022-08-28T07:46:54.649Z,996.57
2022-08-28T07:47:53.913Z,996.57
2022-08-28T07:48:53.866Z,996.58
2022-08-28T07:49:53.836Z,996.59
2022-08-28T07:50:53.820Z,996.62
2022-08-28T07:51:54.155Z,996.63
2022-08-28T07:52:53.808Z,996.64
2022-08-28T07:53:53.824Z,996.62
2022-08-28T07:54:53.777Z,996.66
2022-08-28T07:55:54.832Z,996.61
2022-08-28T07:56:53.764Z,996.58
2022-08-28T07:57:53.775Z,996.64
2022-08-28T07:58:53.756Z,996.68
2022-08-28T07:59:53.724Z,996.64
2022-08-28T08:00:53.779Z,996.66
2022-08-28T08:01:53.753Z,996.70
2022-08-28T08:02:53.725Z,996.73
2022-08-28T08:03:57.686Z,996.68
2022-08-28T08:04:54.665Z,996.70
2022-08-28T08:05:53.662Z,996.68
2022-08-28T08:06:57.871Z,996.75
2022-08-28T08:07:54.654Z,996.73
2022-08-28T08:08:53.776Z,996.69
2022-08-28T08:09:53.721Z,996.72
2022-08-28T08:10:53.648Z,996.72
2022-08-28T08:11:53.679Z,996.80
2022-08-28T08:12:53.616Z,996.80
2022-08-28T08:13:53.628Z,996.81
2022-08-28T08:14:54.165Z,996.82
2022-08-28T08:15:53.842Z,996.83
2022-08-28T08:16:53.664Z,996.81
2022-08-28T08:17:53.675Z,996.84
2022-08-28T08:18:53.566Z,996.83
2022-08-28T08:19:53.589Z,996.80
2022-08-28T08:20:54.486Z,996.77
2022-08-28T08:21:55.243Z,996.82
2022-08-28T08:22:54.191Z,996.76
2022-08-28T08:23:53.602Z,996.79
2022-08-28T08:24:53.456Z,996.78
2022-08-28T08:25:53.530Z,996.76
2022-08-28T08:26:58.780Z,996.79
2022-08-28T08:27:54.488Z,996.80
2022-08-28T08:28:53.411Z,996.83
2022-08-28T08:29:53.446Z,996.77
2022-08-28T08:30:54.097Z,996.77
2022-08-28T08:31:53.435Z,996.79
2022-08-28T08:32:53.397Z,996.75
2022-08-28T08:33:53.438Z,996.75
2022-08-28T08:34:53.355Z,996.79
2022-08-28T08:35:53.398Z,996.78
2022-08-28T08:36:53.398Z,996.76
2022-08-28T08:37:53.350Z,996.81
2022-08-28T08:38:59.602Z,996.72
2022-08-28T08:39:54.457Z,996.85
2022-08-28T08:40:53.398Z,996.83
2022-08-28T08:41:53.676Z,996.79
2022-08-28T08:42:53.294Z,996.78
2022-08-28T08:43:53.279Z,996.80
2022-08-28T08:44:53.305Z,996.78
2022-08-28T08:45:53.307Z,996.77
2022-08-28T08:46:53.440Z,996.76
2022-08-28T08:47:53.273Z,996.84
2022-08-28T08:48:53.284Z,996.86
2022-08-28T08:49:53.388Z,996.78
2022-08-28T08:50:53.254Z,996.87
2022-08-28T08:51:53.316Z,996.87
2022-08-28T08:52:53.236Z,996.87
2022-08-28T08:53:53.317Z,996.83
2022-08-28T08:54:56.442Z,996.84
2022-08-28T08:55:55.144Z,996.85
2022-08-28T08:56:53.229Z,996.78
2022-08-28T08:57:54.883Z,996.83
2022-08-28T08:58:53.136Z,996.86
2022-08-28T08:59:53.161Z,996.81
2022-08-28T09:00:53.169Z,996.79
2022-08-28T09:01:53.300Z,996.79
2022-08-28T09:02:53.208Z,996.83
2022-08-28T09:03:53.773Z,996.77
2022-08-28T09:04:53.686Z,996.83
2022-08-28T09:05:53.124Z,996.81
2022-08-28T09:06:53.178Z,996.73
2022-08-28T09:07:53.357Z,996.71
2022-08-28T09:08:54.048Z,996.77
2022-08-28T09:09:53.119Z,996.79
2022-08-28T09:10:53.053Z,996.81
2022-08-28T09:11:55.476Z,996.83
2022-08-28T09:12:52.986Z,996.79
2022-08-28T09:13:53.016Z,996.84
2022-08-28T09:14:52.982Z,996.78
2022-08-28T09:15:52.991Z,996.84
2022-08-28T09:16:52.997Z,996.79
2022-08-28T09:17:53.032Z,996.78
2022-08-28T09:18:53.035Z,996.78
2022-08-28T09:19:52.967Z,996.79
2022-08-28T09:20:52.905Z,996.86
2022-08-28T09:21:52.980Z,996.90
2022-08-28T09:22:52.871Z,996.84
2022-08-28T09:23:52.923Z,996.84
2022-08-28T09:24:52.942Z,996.87
2022-08-28T09:25:52.872Z,996.80
2022-08-28T09:26:52.867Z,996.86
2022-08-28T09:27:52.909Z,996.89
2022-08-28T09:28:52.841Z,996.89
2022-08-28T09:29:52.861Z,996.79
2022-08-28T09:30:52.864Z,996.83
2022-08-28T09:31:52.851Z,996.85
2022-08-28T09:32:52.885Z,996.84
2022-08-28T09:33:52.844Z,996.92
2022-08-28T09:34:52.784Z,996.92
2022-08-28T09:35:52.821Z,996.95
2022-08-28T09:36:52.748Z,996.93
2022-08-28T09:37:52.894Z,996.90
2022-08-28T09:38:52.787Z,996.88
2022-08-28T09:39:52.773Z,996.98
2022-08-28T09:40:52.784Z,996.90
2022-08-28T09:41:53.692Z,996.93
2022-08-28T09:42:52.758Z,996.87
2022-08-28T09:43:52.907Z,996.90
2022-08-28T09:44:52.731Z,996.88
2022-08-28T09:45:52.809Z,996.89
2022-08-28T09:46:52.808Z,996.88
2022-08-28T09:47:52.788Z,996.86
2022-08-28T09:48:52.662Z,996.82
2022-08-28T09:49:52.799Z,996.90
2022-08-28T09:50:52.682Z,996.86
2022-08-28T09:51:52.704Z,996.85
2022-08-28T09:52:53.172Z,996.86
2022-08-28T09:53:52.751Z,996.87
2022-08-28T09:54:52.660Z,996.79
2022-08-28T09:55:52.658Z,996.83
2022-08-28T09:56:52.748Z,996.85
2022-08-28T09:57:52.602Z,996.85
2022-08-28T09:58:52.635Z,996.78
2022-08-28T09:59:52.679Z,996.83
2022-08-28T10:00:52.582Z,996.82
2022-08-28T10:01:52.885Z,996.74
2022-08-28T10:02:52.607Z,996.80
2022-08-28T10:03:52.654Z,996.78
2022-08-28T10:04:52.566Z,996.84
2022-08-28T10:05:52.527Z,996.76
2022-08-28T10:06:52.542Z,996.68
2022-08-28T10:07:52.636Z,996.76
2022-08-28T10:08:52.500Z,996.77
2022-08-28T10:09:52.446Z,996.75
2022-08-28T10:10:52.573Z,996.78
2022-08-28T10:11:52.565Z,996.87
2022-08-28T10:12:52.541Z,996.80
2022-08-28T10:13:52.431Z,996.76
2022-08-28T10:14:52.614Z,996.73
2022-08-28T10:16:00.603Z,996.75
2022-08-28T10:16:53.455Z,996.73
2022-08-28T10:17:53.180Z,996.79
2022-08-28T10:18:52.510Z,996.81
2022-08-28T10:19:52.406Z,996.83
2022-08-28T10:20:52.413Z,996.77
2022-08-28T10:21:52.366Z,996.78
2022-08-28T10:22:52.428Z,996.82
2022-08-28T10:23:52.301Z,996.78
2022-08-28T10:24:52.401Z,996.77
2022-08-28T10:25:52.632Z,996.79
2022-08-28T10:26:52.634Z,996.84
2022-08-28T10:27:52.329Z,996.83
2022-08-28T10:28:52.346Z,996.81
2022-08-28T10:29:52.269Z,996.74
2022-08-28T10:30:52.408Z,996.79
2022-08-28T10:31:52.398Z,996.79
2022-08-28T10:32:53.245Z,996.74
2022-08-28T10:33:52.191Z,996.72
2022-08-28T10:34:52.425Z,996.76
2022-08-28T10:35:52.179Z,996.76
2022-08-28T10:36:54.308Z,996.66
2022-08-28T10:37:53.587Z,996.75
2022-08-28T10:38:53.253Z,996.71
2022-08-28T10:39:52.374Z,996.68
2022-08-28T10:40:52.175Z,996.67
2022-08-28T10:41:52.596Z,996.71
2022-08-28T10:42:52.127Z,996.75
2022-08-28T10:43:52.491Z,996.78
2022-08-28T10:44:52.094Z,996.74
2022-08-28T10:45:52.440Z,996.75
2022-08-28T10:46:52.200Z,996.76
2022-08-28T10:47:52.111Z,996.71
2022-08-28T10:48:52.127Z,996.80
2022-08-28T10:49:52.041Z,996.80
2022-08-28T10:50:52.057Z,996.78
2022-08-28T10:51:52.081Z,996.75
2022-08-28T10:52:52.710Z,996.73
2022-08-28T10:53:55.129Z,996.77
2022-08-28T10:54:52.084Z,996.77
2022-08-28T10:55:52.021Z,996.75
2022-08-28T10:56:56.449Z,996.79
2022-08-28T10:57:52.058Z,996.65
2022-08-28T10:58:52.071Z,996.71
2022-08-28T10:59:52.044Z,996.79
2022-08-28T11:00:52.044Z,996.74
2022-08-28T11:01:52.120Z,996.72
2022-08-28T11:02:52.544Z,996.75
2022-08-28T11:03:52.913Z,996.79
2022-08-28T11:04:54.291Z,996.76
2022-08-28T11:05:54.005Z,996.76
2022-08-28T11:06:52.936Z,996.75
2022-08-28T11:07:51.936Z,996.68
2022-08-28T11:08:51.932Z,996.70
2022-08-28T11:09:51.915Z,996.71
2022-08-28T11:10:51.929Z,996.74
2022-08-28T11:11:51.821Z,996.69
2022-08-28T11:12:51.867Z,996.68
2022-08-28T11:13:52.820Z,996.70
2022-08-28T11:14:51.812Z,996.68
2022-08-28T11:15:52.019Z,996.68
2022-08-28T11:16:52.365Z,996.71
2022-08-28T11:17:53.396Z,996.75
2022-08-28T11:18:51.782Z,996.71
2022-08-28T11:19:52.573Z,996.67
2022-08-28T11:20:52.891Z,996.67
2022-08-28T11:21:51.730Z,996.67
2022-08-28T11:22:51.742Z,996.68
2022-08-28T11:23:51.696Z,996.68
2022-08-28T11:24:51.789Z,996.74
2022-08-28T11:25:51.792Z,996.69
2022-08-28T11:26:51.788Z,996.70
2022-08-28T11:27:51.848Z,996.75
2022-08-28T11:32:48.533Z,996.67
2022-08-28T11:33:48.710Z,996.67
2022-08-28T11:34:47.372Z,996.66
2022-08-28T11:35:47.590Z,996.67
2022-08-28T11:36:52.293Z,996.59
2022-08-28T11:37:47.295Z,996.70
2022-08-28T11:38:47.554Z,996.71
2022-08-28T11:39:47.131Z,996.65
2022-08-28T11:40:47.092Z,996.71
2022-08-28T11:41:47.258Z,996.69
2022-08-28T11:42:56.662Z,996.70
2022-08-28T11:43:48.677Z,996.73
2022-08-28T11:44:54.310Z,996.67
2022-08-28T11:45:47.591Z,996.70
2022-08-28T11:46:48.180Z,996.72
2022-08-28T11:47:46.858Z,996.67
2022-08-28T11:48:46.892Z,996.71
2022-08-28T11:49:46.865Z,996.62
2022-08-28T11:50:46.943Z,996.62
2022-08-28T11:51:46.870Z,996.67
2022-08-28T11:52:46.818Z,996.63
2022-08-28T11:53:46.929Z,996.60
2022-08-28T11:54:46.806Z,996.61
2022-08-28T11:55:47.006Z,996.62
2022-08-28T11:56:47.997Z,996.59
2022-08-28T11:57:46.792Z,996.61
2022-08-28T11:58:46.802Z,996.60
2022-08-28T11:59:46.946Z,996.58
2022-08-28T12:00:46.735Z,996.62
2022-08-28T12:02:20.541Z,996.58
2022-08-28T12:02:46.947Z,996.61
2022-08-28T12:03:46.852Z,996.54
2022-08-28T12:04:46.731Z,996.55
2022-08-28T12:05:46.653Z,996.59
2022-08-28T12:06:46.776Z,996.59
2022-08-28T12:07:46.627Z,996.57
2022-08-28T12:08:46.663Z,996.59
2022-08-28T12:09:46.648Z,996.63
2022-08-28T12:10:46.615Z,996.60
2022-08-28T12:11:46.613Z,996.60
2022-08-28T12:12:46.570Z,996.60
2022-08-28T12:13:46.591Z,996.59
2022-08-28T12:14:46.598Z,996.61
2022-08-28T12:15:46.691Z,996.56
2022-08-28T12:16:46.566Z,996.48
2022-08-28T12:17:46.613Z,996.51
2022-08-28T12:18:46.659Z,996.55
2022-08-28T12:19:51.251Z,996.37
2022-08-28T12:20:48.475Z,996.52
2022-08-28T12:21:46.608Z,996.51
2022-08-28T12:22:46.521Z,996.42
2022-08-28T12:23:46.801Z,996.55
2022-08-28T12:24:46.638Z,996.46
2022-08-28T12:25:46.582Z,996.42
2022-08-28T12:26:46.470Z,996.46
2022-08-28T12:27:46.519Z,996.45
2022-08-28T12:28:46.550Z,996.44
2022-08-28T12:29:46.603Z,996.40
2022-08-28T12:30:46.607Z,996.45
2022-08-28T12:31:46.438Z,996.47
2022-08-28T12:32:46.763Z,996.40
2022-08-28T12:34:07.498Z,996.49
2022-08-28T12:34:48.342Z,996.46
2022-08-28T12:35:46.512Z,996.44
2022-08-28T12:36:50.155Z,996.46
2022-08-28T12:37:52.190Z,996.53
2022-08-28T12:38:46.335Z,996.51
2022-08-28T12:39:46.470Z,996.52
2022-08-28T12:40:46.473Z,996.48
2022-08-28T12:41:46.349Z,996.49
2022-08-28T12:42:46.435Z,996.43
2022-08-28T12:43:46.898Z,996.47
2022-08-28T12:44:47.240Z,996.46
2022-08-28T12:45:46.450Z,996.52
2022-08-28T12:46:46.265Z,996.45